createdAt,value
2023-05-09T00:00:16.115Z,15.74
2023-05-09T00:01:16.129Z,13.81
2023-05-09T00:02:16.159Z,8.97
2023-05-09T00:03:16.201Z,13.81
2023-05-09T00:04:16.184Z,9.62
2023-05-09T00:05:16.427Z,13.81
2023-05-09T00:06:16.063Z,19.61
2023-05-09T00:07:16.075Z,14.13
2023-05-09T00:08:16.076Z,16.39
2023-05-09T00:09:16.051Z,10.26
2023-05-09T00:10:16.023Z,17.68
2023-05-09T00:11:16.016Z,8.65
2023-05-09T00:12:15.998Z,13.49
2023-05-09T00:13:16.019Z,13.49
2023-05-09T00:14:15.977Z,19.93
2023-05-09T00:15:16.143Z,13.16
2023-05-09T00:16:15.973Z,14.45
2023-05-09T00:17:15.979Z,13.16
2023-05-09T00:18:15.923Z,13.49
2023-05-09T00:19:15.966Z,14.78
2023-05-09T00:20:15.919Z,17.68
2023-05-09T00:21:15.944Z,13.81
2023-05-09T00:22:15.895Z,12.84
2023-05-09T00:23:15.881Z,7.36
2023-05-09T00:24:15.875Z,13.81
2023-05-09T00:25:16.185Z,8.97
2023-05-09T00:26:15.845Z,13.49
2023-05-09T00:27:15.861Z,5.43
2023-05-09T00:28:15.819Z,18.00
2023-05-09T00:29:15.826Z,13.49
2023-05-09T00:30:15.799Z,13.49
2023-05-09T00:31:15.802Z,13.81
2023-05-09T00:32:15.859Z,13.16
2023-05-09T00:33:15.798Z,12.84
2023-05-09T00:34:15.761Z,8.01
2023-05-09T00:35:16.010Z,13.81
2023-05-09T00:36:15.726Z,13.49
2023-05-09T00:37:15.734Z,13.49
2023-05-09T00:38:15.718Z,13.81
2023-05-09T00:39:15.706Z,9.30
2023-05-09T00:40:15.688Z,14.45
2023-05-09T00:41:15.707Z,14.13
2023-05-09T00:42:15.670Z,13.49
2023-05-09T00:43:15.666Z,10.26
2023-05-09T00:44:15.643Z,17.03
2023-05-09T00:45:15.754Z,13.49
2023-05-09T00:46:15.634Z,13.49
2023-05-09T00:47:15.645Z,13.49
2023-05-09T00:48:15.589Z,13.49
2023-05-09T00:49:15.630Z,10.59
2023-05-09T00:50:15.584Z,10.59
2023-05-09T00:51:15.582Z,13.16
2023-05-09T00:52:15.567Z,15.74
2023-05-09T00:53:15.575Z,17.35
2023-05-09T00:54:15.529Z,13.16
2023-05-09T00:55:15.728Z,13.49
2023-05-09T00:56:15.519Z,14.45
2023-05-09T00:57:15.517Z,13.49
2023-05-09T00:58:15.514Z,13.81
2023-05-09T00:59:17.436Z,6.07
2023-05-09T01:00:15.816Z,10.26
2023-05-09T01:01:15.591Z,13.16
2023-05-09T01:02:15.453Z,13.49
2023-05-09T01:03:15.641Z,14.13
2023-05-09T01:04:15.439Z,13.81
2023-05-09T01:05:15.791Z,13.81
2023-05-09T01:06:15.410Z,13.16
2023-05-09T01:07:15.421Z,13.81
2023-05-09T01:08:15.395Z,8.97
2023-05-09T01:09:15.400Z,13.49
2023-05-09T01:10:15.373Z,13.49
2023-05-09T01:11:15.380Z,18.00
2023-05-09T01:12:15.341Z,13.16
2023-05-09T01:13:15.415Z,8.33
2023-05-09T01:14:15.309Z,13.49
2023-05-09T01:15:15.584Z,13.81
2023-05-09T01:16:15.321Z,13.49
2023-05-09T01:17:15.310Z,13.49
2023-05-09T01:18:15.326Z,16.71
2023-05-09T01:19:15.297Z,18.64
2023-05-09T01:20:15.250Z,17.35
2023-05-09T01:21:15.273Z,13.49
2023-05-09T01:22:15.227Z,13.16
2023-05-09T01:23:15.259Z,12.84
2023-05-09T01:24:15.209Z,13.16
2023-05-09T01:25:15.455Z,13.16
2023-05-09T01:26:15.189Z,16.39
2023-05-09T01:27:15.185Z,13.16
2023-05-09T01:28:15.164Z,8.65
2023-05-09T01:29:15.196Z,13.49
2023-05-09T01:30:15.179Z,13.81
2023-05-09T01:31:15.211Z,14.13
2023-05-09T01:32:15.118Z,13.81
2023-05-09T01:33:15.145Z,12.84
2023-05-09T01:34:15.129Z,13.49
2023-05-09T01:35:15.436Z,18.00
2023-05-09T01:36:15.294Z,18.64
2023-05-09T01:37:15.083Z,13.49
2023-05-09T01:38:15.053Z,13.49
2023-05-09T01:39:15.080Z,12.52
2023-05-09T01:40:15.026Z,10.59
2023-05-09T01:41:15.060Z,12.84
2023-05-09T01:42:15.031Z,13.16
2023-05-09T01:43:15.032Z,13.49
2023-05-09T01:44:15.065Z,9.30
2023-05-09T01:45:15.371Z,12.84
2023-05-09T01:46:14.981Z,13.49
2023-05-09T01:47:14.988Z,13.16
2023-05-09T01:48:14.944Z,13.49
2023-05-09T01:49:14.950Z,13.49
2023-05-09T01:50:14.932Z,13.49
2023-05-09T01:51:14.971Z,17.68
2023-05-09T01:52:14.924Z,7.36
2023-05-09T01:53:14.915Z,13.16
2023-05-09T01:54:14.880Z,13.16
2023-05-09T01:55:14.975Z,12.84
2023-05-09T01:56:14.860Z,12.84
2023-05-09T01:57:14.892Z,13.49
2023-05-09T01:58:14.840Z,13.16
2023-05-09T01:59:14.844Z,13.49
2023-05-09T02:00:14.829Z,13.16
2023-05-09T02:01:14.893Z,14.45
2023-05-09T02:02:14.848Z,18.32
2023-05-09T02:03:14.846Z,8.65
2023-05-09T02:04:14.773Z,9.94
2023-05-09T02:05:15.027Z,13.49
2023-05-09T02:06:14.751Z,9.94
2023-05-09T02:07:14.770Z,13.49
2023-05-09T02:08:14.730Z,13.49
2023-05-09T02:09:14.762Z,12.84
2023-05-09T02:10:14.711Z,7.04
2023-05-09T02:11:14.714Z,12.84
2023-05-09T02:12:14.691Z,12.20
2023-05-09T02:13:14.741Z,18.96
2023-05-09T02:14:14.662Z,7.04
2023-05-09T02:15:14.961Z,13.49
2023-05-09T02:16:14.710Z,15.74
2023-05-09T02:17:14.644Z,10.91
2023-05-09T02:18:14.628Z,12.52
2023-05-09T02:19:14.618Z,13.49
2023-05-09T02:20:14.605Z,13.81
2023-05-09T02:21:14.654Z,12.52
2023-05-09T02:22:14.717Z,13.16
2023-05-09T02:23:14.595Z,12.52
2023-05-09T02:24:14.562Z,18.64
2023-05-09T02:25:14.774Z,6.72
2023-05-09T02:26:14.538Z,12.20
2023-05-09T02:27:14.540Z,17.03
2023-05-09T02:28:14.506Z,12.84
2023-05-09T02:29:14.523Z,11.23
2023-05-09T02:30:14.496Z,13.16
2023-05-09T02:31:14.499Z,18.64
2023-05-09T02:32:14.504Z,8.33
2023-05-09T02:33:14.495Z,13.16
2023-05-09T02:34:14.451Z,8.65
2023-05-09T02:35:14.658Z,8.97
2023-05-09T02:36:14.420Z,16.39
2023-05-09T02:37:14.442Z,17.03
2023-05-09T02:38:14.416Z,13.49
2023-05-09T02:39:14.403Z,13.16
2023-05-09T02:40:14.389Z,8.97
2023-05-09T02:41:14.404Z,12.84
2023-05-09T02:42:14.355Z,6.40
2023-05-09T02:43:14.378Z,12.52
2023-05-09T02:44:14.336Z,8.33
2023-05-09T02:45:14.453Z,13.16
2023-05-09T02:46:14.395Z,13.16
2023-05-09T02:47:14.319Z,13.81
2023-05-09T02:48:14.318Z,13.49
2023-05-09T02:49:26.701Z,17.03
2023-05-09T02:50:14.269Z,13.16
2023-05-09T02:51:14.283Z,13.49
2023-05-09T02:52:14.269Z,13.16
2023-05-09T02:53:14.251Z,13.16
2023-05-09T02:54:14.230Z,12.84
2023-05-09T02:55:14.427Z,13.49
2023-05-09T02:56:14.214Z,21.54
2023-05-09T02:57:14.216Z,12.84
2023-05-09T02:58:15.129Z,12.84
2023-05-09T02:59:14.183Z,13.81
2023-05-09T03:00:14.169Z,13.49
2023-05-09T03:01:14.195Z,18.64
2023-05-09T03:02:14.151Z,15.74
2023-05-09T03:03:14.228Z,12.52
2023-05-09T03:04:14.145Z,18.00
2023-05-09T03:05:14.299Z,10.26
2023-05-09T03:06:14.096Z,8.33
2023-05-09T03:07:14.117Z,8.97
2023-05-09T03:08:14.129Z,13.16
2023-05-09T03:09:14.090Z,16.71
2023-05-09T03:10:14.065Z,12.52
2023-05-09T03:11:14.012Z,18.00
2023-05-09T03:12:14.048Z,12.84
2023-05-09T03:13:14.037Z,13.49
2023-05-09T03:14:13.965Z,13.16
2023-05-09T03:15:14.226Z,13.16
2023-05-09T03:16:14.000Z,12.84
2023-05-09T03:17:14.006Z,12.84
2023-05-09T03:18:13.984Z,21.87
2023-05-09T03:19:13.975Z,13.49
2023-05-09T03:20:13.900Z,13.49
2023-05-09T03:21:13.962Z,12.84
2023-05-09T03:22:13.917Z,13.16
2023-05-09T03:23:13.908Z,13.16
2023-05-09T03:24:13.889Z,13.16
2023-05-09T03:25:14.089Z,12.84
2023-05-09T03:26:13.854Z,13.49
2023-05-09T03:27:13.816Z,12.84
2023-05-09T03:28:13.837Z,3.82
2023-05-09T03:29:13.810Z,8.33
2023-05-09T03:30:13.797Z,13.16
2023-05-09T03:31:13.807Z,12.20
2023-05-09T03:32:15.242Z,18.00
2023-05-09T03:33:13.773Z,12.84
2023-05-09T03:34:13.769Z,9.30
2023-05-09T03:35:13.936Z,13.16
2023-05-09T03:36:13.748Z,23.15
2023-05-09T03:37:13.734Z,12.52
2023-05-09T03:38:13.731Z,12.84
2023-05-09T03:39:13.692Z,18.00
2023-05-09T03:40:13.718Z,12.52
2023-05-09T03:41:13.663Z,13.16
2023-05-09T03:42:13.679Z,14.13
2023-05-09T03:43:13.649Z,15.42
2023-05-09T03:44:13.734Z,12.84
2023-05-09T03:45:14.559Z,12.84
2023-05-09T03:46:15.671Z,13.81
2023-05-09T03:47:14.641Z,12.84
2023-05-09T03:48:13.670Z,12.84
2023-05-09T03:49:13.577Z,16.39
2023-05-09T03:50:13.598Z,13.16
2023-05-09T03:51:13.600Z,17.03
2023-05-09T03:52:13.560Z,8.33
2023-05-09T03:53:13.537Z,12.84
2023-05-09T03:54:13.541Z,12.84
2023-05-09T03:55:13.791Z,12.84
2023-05-09T03:56:13.532Z,12.84
2023-05-09T03:57:13.503Z,19.29
2023-05-09T03:58:13.496Z,12.20
2023-05-09T03:59:13.487Z,6.40
2023-05-09T04:00:13.493Z,12.52
2023-05-09T04:01:13.448Z,18.00
2023-05-09T04:02:13.519Z,12.84
2023-05-09T04:03:13.552Z,15.42
2023-05-09T04:04:13.663Z,12.52
2023-05-09T04:05:13.675Z,15.10
2023-05-09T04:06:19.947Z,12.84
2023-05-09T04:07:13.393Z,13.49
2023-05-09T04:08:13.411Z,12.52
2023-05-09T04:09:13.361Z,12.84
2023-05-09T04:10:13.379Z,11.55
2023-05-09T04:11:13.358Z,17.68
2023-05-09T04:12:13.361Z,17.35
2023-05-09T04:13:13.356Z,8.65
2023-05-09T04:14:13.333Z,18.32
2023-05-09T04:15:13.809Z,12.84
2023-05-09T04:16:13.431Z,18.96
2023-05-09T04:17:13.278Z,8.65
2023-05-09T04:18:13.294Z,12.52
2023-05-09T04:19:13.263Z,12.84
2023-05-09T04:20:13.279Z,8.01
2023-05-09T04:21:13.258Z,12.84
2023-05-09T04:22:13.271Z,11.55
2023-05-09T04:23:13.216Z,16.39
2023-05-09T04:24:13.254Z,7.69
2023-05-09T04:25:13.388Z,12.84
2023-05-09T04:26:13.217Z,17.68
2023-05-09T04:27:13.171Z,15.74
2023-05-09T04:28:13.181Z,12.84
2023-05-09T04:29:13.165Z,12.84
2023-05-09T04:30:13.172Z,9.62
2023-05-09T04:31:13.219Z,8.65
2023-05-09T04:32:13.195Z,12.84
2023-05-09T04:33:13.118Z,9.94
2023-05-09T04:34:13.138Z,12.20
2023-05-09T04:35:13.455Z,13.16
2023-05-09T04:36:13.089Z,5.11
2023-05-09T04:37:13.060Z,9.30
2023-05-09T04:38:13.090Z,18.32
2023-05-09T04:39:13.048Z,12.84
2023-05-09T04:40:13.053Z,15.10
2023-05-09T04:41:13.032Z,10.59
2023-05-09T04:42:13.025Z,13.16
2023-05-09T04:43:13.026Z,12.84
2023-05-09T04:44:13.024Z,12.52
2023-05-09T04:45:13.310Z,13.16
2023-05-09T04:46:13.007Z,12.20
2023-05-09T04:47:12.973Z,13.16
2023-05-09T04:48:12.975Z,10.91
2023-05-09T04:49:12.929Z,18.96
2023-05-09T04:50:12.973Z,12.84
2023-05-09T04:51:12.941Z,14.78
2023-05-09T04:52:12.922Z,13.81
2023-05-09T04:53:12.913Z,12.84
2023-05-09T04:54:12.904Z,7.69
2023-05-09T04:55:13.014Z,12.84
2023-05-09T04:56:12.883Z,15.74
2023-05-09T04:57:18.050Z,8.97
2023-05-09T04:58:12.876Z,13.49
2023-05-09T04:59:12.873Z,7.69
2023-05-09T05:00:12.847Z,6.40
2023-05-09T05:01:12.886Z,13.16
2023-05-09T05:02:12.811Z,8.33
2023-05-09T05:03:12.797Z,12.84
2023-05-09T05:04:12.834Z,10.26
2023-05-09T05:05:12.897Z,13.16
2023-05-09T05:06:12.875Z,12.84
2023-05-09T05:07:12.786Z,13.16
2023-05-09T05:08:12.763Z,13.49
2023-05-09T05:09:12.724Z,12.52
2023-05-09T05:10:12.738Z,13.81
2023-05-09T05:11:12.689Z,8.33
2023-05-09T05:12:12.731Z,6.07
2023-05-09T05:13:12.741Z,7.36
2023-05-09T05:14:12.690Z,2.85
2023-05-09T05:15:12.891Z,13.16
2023-05-09T05:16:12.674Z,13.16
2023-05-09T05:17:12.639Z,12.52
2023-05-09T05:18:12.633Z,10.91
2023-05-09T05:19:12.601Z,6.07
2023-05-09T05:20:12.631Z,12.84
2023-05-09T05:21:12.583Z,9.62
2023-05-09T05:22:12.608Z,18.32
2023-05-09T05:23:12.570Z,12.52
2023-05-09T05:24:12.585Z,19.29
2023-05-09T05:25:12.689Z,17.68
2023-05-09T05:26:12.555Z,14.45
2023-05-09T05:27:12.527Z,13.81
2023-05-09T05:28:12.543Z,13.16
2023-05-09T05:29:12.513Z,18.32
2023-05-09T05:30:12.518Z,17.35
2023-05-09T05:31:12.494Z,17.68
2023-05-09T05:32:12.505Z,13.16
2023-05-09T05:33:12.452Z,13.49
2023-05-09T05:34:12.468Z,17.03
2023-05-09T05:35:12.614Z,13.81
2023-05-09T05:36:12.448Z,18.32
2023-05-09T05:37:12.404Z,13.49
2023-05-09T05:38:12.432Z,13.81
2023-05-09T05:39:12.389Z,14.13
2023-05-09T05:40:12.417Z,13.49
2023-05-09T05:41:12.407Z,13.49
2023-05-09T05:42:12.376Z,8.97
2023-05-09T05:43:12.341Z,7.04
2023-05-09T05:44:12.351Z,13.16
2023-05-09T05:45:12.603Z,13.81
2023-05-09T05:46:12.354Z,13.81
2023-05-09T05:47:12.285Z,10.26
2023-05-09T05:48:12.328Z,13.81
2023-05-09T05:49:12.268Z,18.00
2023-05-09T05:50:12.334Z,5.75
2023-05-09T05:51:12.264Z,19.29
2023-05-09T05:52:12.262Z,12.84
2023-05-09T05:53:12.227Z,13.49
2023-05-09T05:54:12.262Z,13.49
2023-05-09T05:55:12.363Z,16.71
2023-05-09T05:56:12.218Z,7.04
2023-05-09T05:57:12.182Z,13.81
2023-05-09T05:58:12.204Z,13.49
2023-05-09T05:59:13.401Z,13.49
2023-05-09T06:00:12.197Z,13.49
2023-05-09T06:01:12.165Z,13.81
2023-05-09T06:02:12.172Z,14.45
2023-05-09T06:03:12.157Z,13.49
2023-05-09T06:04:12.137Z,8.33
2023-05-09T06:06:11.102Z,14.13
2023-05-09T06:07:12.071Z,12.84
2023-05-09T06:08:12.109Z,14.45
2023-05-09T06:09:12.071Z,14.45
2023-05-09T06:10:12.211Z,9.30
2023-05-09T06:11:12.023Z,14.78
2023-05-09T06:12:12.034Z,14.13
2023-05-09T06:13:12.072Z,13.81
2023-05-09T06:14:12.016Z,14.78
2023-05-09T06:15:12.063Z,14.13
2023-05-09T06:16:19.349Z,8.33
2023-05-09T06:17:12.030Z,14.13
2023-05-09T06:18:11.995Z,14.78
2023-05-09T06:19:11.944Z,14.45
2023-05-09T06:20:11.962Z,13.81
2023-05-09T06:21:11.976Z,14.13
2023-05-09T06:22:11.941Z,18.64
2023-05-09T06:23:11.887Z,14.13
2023-05-09T06:24:23.365Z,10.59
2023-05-09T06:25:12.099Z,14.45
2023-05-09T06:26:11.900Z,14.45
2023-05-09T06:27:11.851Z,18.64
2023-05-09T06:28:11.874Z,14.78
2023-05-09T06:29:11.846Z,14.13
2023-05-09T06:30:24.673Z,11.87
2023-05-09T06:31:11.813Z,14.45
2023-05-09T06:32:11.828Z,9.30
2023-05-09T06:33:11.784Z,14.78
2023-05-09T06:34:11.788Z,14.78
2023-05-09T06:35:11.942Z,14.13
2023-05-09T06:36:11.819Z,19.93
2023-05-09T06:37:11.757Z,18.64
2023-05-09T06:38:11.744Z,18.32
2023-05-09T06:39:11.709Z,13.49
2023-05-09T06:40:11.742Z,14.13
2023-05-09T06:41:10.684Z,14.13
2023-05-09T06:42:11.705Z,14.45
2023-05-09T06:43:11.698Z,9.30
2023-05-09T06:44:11.678Z,13.16
2023-05-09T06:45:11.718Z,14.45
2023-05-09T06:46:11.704Z,19.93
2023-05-09T06:47:11.660Z,14.45
2023-05-09T06:48:11.646Z,22.51
2023-05-09T06:49:11.613Z,14.78
2023-05-09T06:50:11.636Z,15.74
2023-05-09T06:51:11.593Z,14.78
2023-05-09T06:52:11.605Z,14.78
2023-05-09T06:53:11.569Z,14.78
2023-05-09T06:54:11.595Z,19.29
2023-05-09T06:55:11.541Z,19.61
2023-05-09T06:56:11.618Z,14.78
2023-05-09T06:57:11.531Z,15.10
2023-05-09T06:58:11.545Z,14.78
2023-05-09T06:59:11.504Z,14.78
2023-05-09T07:00:11.527Z,12.20
2023-05-09T07:01:11.522Z,15.10
2023-05-09T07:02:11.528Z,21.54
2023-05-09T07:03:11.574Z,15.10
2023-05-09T07:04:11.495Z,8.01
2023-05-09T07:05:11.534Z,16.06
2023-05-09T07:06:11.434Z,20.25
2023-05-09T07:07:11.418Z,15.42
2023-05-09T07:08:11.427Z,10.26
2023-05-09T07:09:11.407Z,12.20
2023-05-09T07:10:12.591Z,16.71
2023-05-09T07:11:11.376Z,15.10
2023-05-09T07:12:11.388Z,8.01
2023-05-09T07:13:11.440Z,14.45
2023-05-09T07:14:11.360Z,14.78
2023-05-09T07:15:11.496Z,15.10
2023-05-09T07:16:11.412Z,8.01
2023-05-09T07:17:22.226Z,9.62
2023-05-09T07:18:11.351Z,14.78
2023-05-09T07:19:11.298Z,14.45
2023-05-09T07:20:11.321Z,15.10
2023-05-09T07:21:11.260Z,14.45
2023-05-09T07:22:11.301Z,15.10
2023-05-09T07:23:11.314Z,13.49
2023-05-09T07:24:11.276Z,14.78
2023-05-09T07:25:11.220Z,9.30
2023-05-09T07:26:11.228Z,15.10
2023-05-09T07:27:11.208Z,14.45
2023-05-09T07:28:11.238Z,15.42
2023-05-09T07:29:11.188Z,19.93
2023-05-09T07:30:11.186Z,14.78
2023-05-09T07:31:11.234Z,14.45
2023-05-09T07:32:11.204Z,9.94
2023-05-09T07:33:11.255Z,20.90
2023-05-09T07:34:11.151Z,14.45
2023-05-09T07:35:11.158Z,11.55
2023-05-09T07:36:11.112Z,15.42
2023-05-09T07:37:11.723Z,12.84
2023-05-09T07:38:11.132Z,8.97
2023-05-09T07:39:11.090Z,9.30
2023-05-09T07:40:11.059Z,9.62
2023-05-09T07:41:11.082Z,16.39
2023-05-09T07:42:11.035Z,14.13
2023-05-09T07:43:11.053Z,15.10
2023-05-09T07:44:11.008Z,14.78
2023-05-09T07:45:11.033Z,17.35
2023-05-09T07:46:11.038Z,16.06
2023-05-09T07:47:11.002Z,15.10
2023-05-09T07:48:11.031Z,20.90
2023-05-09T07:49:11.007Z,20.90
2023-05-09T07:50:10.953Z,16.06
2023-05-09T07:51:10.985Z,16.06
2023-05-09T07:52:10.933Z,18.64
2023-05-09T07:53:10.973Z,20.58
2023-05-09T07:54:10.922Z,12.20
2023-05-09T07:55:10.939Z,23.48
2023-05-09T07:56:10.892Z,16.39
2023-05-09T07:57:10.890Z,16.39
2023-05-09T07:58:10.894Z,10.26
2023-05-09T07:59:10.877Z,16.06
2023-05-09T08:00:10.821Z,17.35
2023-05-09T08:01:10.844Z,16.71
2023-05-09T08:02:10.837Z,16.71
2023-05-09T08:03:10.975Z,16.39
2023-05-09T08:04:10.884Z,23.15
2023-05-09T08:05:10.824Z,17.35
2023-05-09T08:06:10.775Z,17.35
2023-05-09T08:07:10.788Z,16.06
2023-05-09T08:08:10.749Z,17.35
2023-05-09T08:09:10.778Z,17.35
2023-05-09T08:10:10.772Z,18.00
2023-05-09T08:11:10.729Z,17.03
2023-05-09T08:12:10.709Z,23.48
2023-05-09T08:13:10.748Z,15.74
2023-05-09T08:14:10.684Z,20.90
2023-05-09T08:15:10.708Z,17.35
2023-05-09T08:16:10.695Z,17.68
2023-05-09T08:17:10.682Z,20.25
2023-05-09T08:18:10.643Z,18.00
2023-05-09T08:19:10.666Z,19.61
2023-05-09T08:20:10.672Z,25.09
2023-05-09T08:21:10.624Z,10.59
2023-05-09T08:22:10.618Z,18.00
2023-05-09T08:23:10.605Z,18.32
2023-05-09T08:24:10.599Z,18.00
2023-05-09T08:25:10.597Z,18.32
2023-05-09T08:26:10.567Z,18.00
2023-05-09T08:27:10.578Z,22.19
2023-05-09T08:28:10.531Z,14.45
2023-05-09T08:29:10.551Z,23.80
2023-05-09T08:30:10.518Z,27.67
2023-05-09T08:31:10.598Z,20.90
2023-05-09T08:32:10.495Z,13.49
2023-05-09T08:33:10.552Z,18.32
2023-05-09T08:34:10.479Z,18.96
2023-05-09T08:35:10.482Z,18.64
2023-05-09T08:36:10.459Z,18.32
2023-05-09T08:37:11.883Z,18.64
2023-05-09T08:38:10.433Z,17.68
2023-05-09T08:39:10.439Z,18.96
2023-05-09T08:40:10.421Z,23.80
2023-05-09T08:41:10.437Z,18.64
2023-05-09T08:42:10.403Z,24.77
2023-05-09T08:43:10.412Z,18.96
2023-05-09T08:44:10.375Z,23.15
2023-05-09T08:45:10.393Z,22.83
2023-05-09T08:46:10.416Z,19.61
2023-05-09T08:47:10.389Z,14.13
2023-05-09T08:48:10.393Z,13.16
2023-05-09T08:49:10.351Z,18.96
2023-05-09T08:50:10.316Z,19.29
2023-05-09T08:51:10.308Z,14.13
2023-05-09T08:52:10.296Z,13.16
2023-05-09T08:53:10.290Z,19.29
2023-05-09T08:54:10.286Z,19.29
2023-05-09T08:55:10.292Z,19.61
2023-05-09T08:56:10.254Z,19.61
2023-05-09T08:57:10.256Z,19.61
2023-05-09T08:58:10.216Z,15.10
2023-05-09T08:59:10.252Z,20.25
2023-05-09T09:00:10.285Z,19.61
2023-05-09T09:01:10.270Z,17.35
2023-05-09T09:02:10.311Z,19.93
2023-05-09T09:03:10.222Z,25.09
2023-05-09T09:04:10.192Z,25.73
2023-05-09T09:05:23.982Z,19.93
2023-05-09T09:06:10.168Z,16.71
2023-05-09T09:07:10.159Z,15.42
2023-05-09T09:08:10.194Z,24.44
2023-05-09T09:09:10.199Z,15.42
2023-05-09T09:10:10.092Z,20.58
2023-05-09T09:11:10.193Z,20.58
2023-05-09T09:12:10.211Z,20.25
2023-05-09T09:13:10.121Z,29.92
2023-05-09T09:14:10.073Z,14.45
2023-05-09T09:15:10.081Z,21.54
2023-05-09T09:16:10.058Z,20.25
2023-05-09T09:17:10.055Z,20.90
2023-05-09T09:18:10.336Z,28.63
2023-05-09T09:19:10.033Z,21.22
2023-05-09T09:20:10.025Z,17.03
2023-05-09T09:21:10.013Z,20.90
2023-05-09T09:22:09.962Z,21.54
2023-05-09T09:23:09.986Z,22.83
2023-05-09T09:24:09.983Z,21.22
2023-05-09T09:25:09.945Z,21.22
2023-05-09T09:26:09.967Z,16.06
2023-05-09T09:27:09.941Z,21.54
2023-05-09T09:28:09.900Z,21.87
2023-05-09T09:29:09.914Z,16.71
2023-05-09T09:30:09.898Z,22.19
2023-05-09T09:31:09.913Z,21.22
2023-05-09T09:32:09.959Z,22.19
2023-05-09T09:33:09.912Z,18.32
2023-05-09T09:34:09.835Z,26.38
2023-05-09T09:35:09.886Z,20.25
2023-05-09T09:36:09.829Z,27.34
2023-05-09T09:37:09.823Z,22.51
2023-05-09T09:38:09.797Z,22.51
2023-05-09T09:39:09.835Z,21.54
2023-05-09T09:40:09.780Z,26.38
2023-05-09T09:41:09.792Z,22.83
2023-05-09T09:42:09.764Z,23.15
2023-05-09T09:43:09.807Z,24.77
2023-05-09T09:44:09.756Z,18.96
2023-05-09T09:45:09.781Z,23.15
2023-05-09T09:46:09.778Z,22.51
2023-05-09T09:47:09.729Z,30.24
2023-05-09T09:48:09.732Z,18.64
2023-05-09T09:49:09.699Z,16.39
2023-05-09T09:50:09.702Z,28.31
2023-05-09T09:51:09.713Z,22.83
2023-05-09T09:52:09.662Z,23.15
2023-05-09T09:53:09.678Z,27.34
2023-05-09T09:54:09.630Z,23.80
2023-05-09T09:55:09.650Z,16.39
2023-05-09T09:56:09.631Z,27.02
2023-05-09T09:57:09.661Z,20.58
2023-05-09T09:58:09.600Z,23.48
2023-05-09T09:59:09.621Z,25.09
2023-05-09T10:00:08.564Z,23.48
2023-05-09T10:01:09.656Z,23.48
2023-05-09T10:02:09.595Z,24.12
2023-05-09T10:03:09.635Z,22.83
2023-05-09T10:04:09.603Z,23.80
2023-05-09T10:05:09.554Z,23.80
2023-05-09T10:06:09.518Z,24.12
2023-05-09T10:07:16.115Z,18.96
2023-05-09T10:08:09.498Z,18.96
2023-05-09T10:09:09.495Z,27.34
2023-05-09T10:10:09.460Z,24.12
2023-05-09T10:11:09.481Z,25.09
2023-05-09T10:12:09.486Z,24.44
2023-05-09T10:13:09.519Z,24.44
2023-05-09T10:14:09.497Z,24.12
2023-05-09T10:15:09.470Z,24.44
2023-05-09T10:16:09.545Z,24.77
2023-05-09T10:17:09.620Z,24.77
2023-05-09T10:18:09.708Z,19.29
2023-05-09T10:19:09.417Z,30.24
2023-05-09T10:20:09.424Z,20.90
2023-05-09T10:21:09.444Z,21.54
2023-05-09T10:22:09.344Z,29.92
2023-05-09T10:23:09.441Z,25.41
2023-05-09T10:24:09.313Z,24.77
2023-05-09T10:25:09.337Z,25.73
2023-05-09T10:26:09.295Z,25.09
2023-05-09T10:27:09.319Z,26.05
2023-05-09T10:28:09.309Z,26.05
2023-05-09T10:29:09.326Z,30.57
2023-05-09T10:30:09.264Z,31.53
2023-05-09T10:31:09.304Z,26.05
2023-05-09T10:32:09.237Z,32.82
2023-05-09T10:33:09.292Z,25.73
2023-05-09T10:34:09.251Z,26.05
2023-05-09T10:35:09.237Z,26.05
2023-05-09T10:36:09.188Z,25.73
2023-05-09T10:37:09.215Z,26.05
2023-05-09T10:38:09.167Z,26.38
2023-05-09T10:39:09.187Z,26.38
2023-05-09T10:40:09.163Z,26.70
2023-05-09T10:41:09.165Z,21.87
2023-05-09T10:42:09.135Z,18.64
2023-05-09T10:43:09.155Z,30.89
2023-05-09T10:44:09.107Z,27.02
2023-05-09T10:45:09.130Z,27.02
2023-05-09T10:46:09.169Z,24.12
2023-05-09T10:47:09.090Z,27.34
2023-05-09T10:48:09.288Z,27.34
2023-05-09T10:49:09.068Z,27.99
2023-05-09T10:50:09.051Z,27.02
2023-05-09T10:51:09.062Z,32.18
2023-05-09T10:52:09.035Z,22.51
2023-05-09T10:53:09.082Z,27.67
2023-05-09T10:54:09.003Z,27.34
2023-05-09T10:55:09.014Z,27.34
2023-05-09T10:56:09.023Z,22.19
2023-05-09T10:57:08.992Z,27.67
2023-05-09T10:58:08.960Z,20.25
2023-05-09T10:59:09.005Z,27.34
2023-05-09T11:00:08.941Z,27.67
2023-05-09T11:01:08.980Z,20.25
2023-05-09T11:02:08.923Z,27.67
2023-05-09T11:03:09.042Z,30.89
2023-05-09T11:04:08.909Z,27.99
2023-05-09T11:05:08.986Z,27.67
2023-05-09T11:06:08.876Z,27.02
2023-05-09T11:07:08.914Z,29.28
2023-05-09T11:08:08.878Z,28.31
2023-05-09T11:09:08.882Z,30.89
2023-05-09T11:10:08.869Z,27.99
2023-05-09T11:11:08.853Z,19.93
2023-05-09T11:12:08.825Z,25.09
2023-05-09T11:13:08.901Z,23.80
2023-05-09T11:14:08.805Z,31.53
2023-05-09T11:15:08.829Z,28.31
2023-05-09T11:16:08.831Z,25.41
2023-05-09T11:17:08.808Z,21.87
2023-05-09T11:18:08.822Z,28.31
2023-05-09T11:19:08.794Z,21.87
2023-05-09T11:20:08.749Z,28.63
2023-05-09T11:21:08.795Z,28.31
2023-05-09T11:22:08.735Z,28.31
2023-05-09T11:23:08.745Z,28.63
2023-05-09T11:24:08.702Z,28.96
2023-05-09T11:25:08.727Z,31.86
2023-05-09T11:26:07.688Z,35.08
2023-05-09T11:27:08.711Z,31.86
2023-05-09T11:28:08.667Z,28.63
2023-05-09T11:29:08.682Z,28.63
2023-05-09T11:30:08.657Z,28.63
2023-05-09T11:31:08.667Z,33.14
2023-05-09T11:32:08.652Z,29.92
2023-05-09T11:33:08.701Z,33.47
2023-05-09T11:34:08.605Z,32.82
2023-05-09T11:35:08.625Z,29.28
2023-05-09T11:36:08.584Z,28.63
2023-05-09T11:37:08.628Z,29.28
2023-05-09T11:38:08.574Z,23.48
2023-05-09T11:39:08.607Z,29.28
2023-05-09T11:40:08.568Z,26.70
2023-05-09T11:41:08.561Z,29.28
2023-05-09T11:42:08.528Z,30.24
2023-05-09T11:43:08.533Z,29.92
2023-05-09T11:44:08.507Z,28.96
2023-05-09T11:45:08.500Z,29.28
2023-05-09T11:46:08.544Z,36.04
2023-05-09T11:47:08.489Z,28.96
2023-05-09T11:48:08.550Z,29.60
2023-05-09T11:49:09.577Z,28.31
2023-05-09T11:50:08.440Z,33.79
2023-05-09T11:51:08.472Z,31.53
2023-05-09T11:52:08.456Z,28.96
2023-05-09T11:53:08.519Z,28.96
2023-05-09T11:54:08.432Z,28.96
2023-05-09T11:55:10.208Z,25.73
2023-05-09T11:56:08.421Z,25.73
2023-05-09T11:57:08.367Z,24.44
2023-05-09T11:58:08.376Z,34.11
2023-05-09T11:59:08.379Z,29.60
2023-05-09T12:00:08.368Z,34.11
2023-05-09T12:01:09.968Z,29.28
2023-05-09T12:02:08.416Z,28.96
2023-05-09T12:03:08.364Z,29.28
2023-05-09T12:04:08.390Z,29.28
2023-05-09T12:05:08.298Z,28.96
2023-05-09T12:06:08.317Z,29.28
2023-05-09T12:07:08.265Z,28.96
2023-05-09T12:08:08.289Z,34.11
2023-05-09T12:09:08.243Z,29.28
2023-05-09T12:10:08.249Z,32.18
2023-05-09T12:11:08.220Z,28.96
2023-05-09T12:12:08.256Z,28.96
2023-05-09T12:13:08.236Z,31.86
2023-05-09T12:14:08.276Z,34.11
2023-05-09T12:15:08.195Z,29.60
2023-05-09T12:16:08.246Z,23.48
2023-05-09T12:17:08.173Z,33.79
2023-05-09T12:18:08.381Z,26.70
2023-05-09T12:19:08.141Z,29.60
2023-05-09T12:20:08.175Z,29.60
2023-05-09T12:21:08.140Z,29.28
2023-05-09T12:22:08.127Z,33.14
2023-05-09T12:23:08.111Z,28.31
2023-05-09T12:24:08.119Z,34.11
2023-05-09T12:25:08.084Z,33.79
2023-05-09T12:26:08.119Z,29.60
2023-05-09T12:27:08.070Z,34.43
2023-05-09T12:28:08.082Z,29.28
2023-05-09T12:29:08.060Z,31.86
2023-05-09T12:30:08.076Z,25.09
2023-05-09T12:31:08.069Z,28.96
2023-05-09T12:32:08.048Z,34.11
2023-05-09T12:33:08.058Z,20.90
2023-05-09T12:34:08.015Z,29.28
2023-05-09T12:35:07.987Z,32.50
2023-05-09T12:36:08.036Z,34.11
2023-05-09T12:37:07.967Z,25.41
2023-05-09T12:38:07.982Z,29.28
2023-05-09T12:39:07.954Z,29.28
2023-05-09T12:40:07.980Z,24.44
2023-05-09T12:41:15.421Z,28.63
2023-05-09T12:42:07.948Z,28.96
2023-05-09T12:43:07.921Z,21.54
2023-05-09T12:44:07.902Z,28.96
2023-05-09T12:45:07.913Z,29.28
2023-05-09T12:46:07.921Z,28.96
2023-05-09T12:47:07.963Z,24.44
2023-05-09T12:48:07.934Z,23.15
2023-05-09T12:49:07.857Z,28.31
2023-05-09T12:50:07.859Z,28.63
2023-05-09T12:51:07.836Z,22.51
2023-05-09T12:52:09.713Z,29.60
2023-05-09T12:53:07.806Z,29.60
2023-05-09T12:54:07.848Z,28.96
2023-05-09T12:55:07.798Z,28.96